sensor_id;sensor_type;location;lat;lon;timestamp;P1;durP1;ratioP1;P2;durP2;ratioP2
35418;SDS011;21525;41.240;16.500;2022-11-20T00:00:56;9.35;;;5.05;;
35418;SDS011;21525;41.240;16.500;2022-11-20T00:03:21;9.45;;;3.20;;
35418;SDS011;21525;41.240;16.500;2022-11-20T00:05:48;9.77;;;3.15;;
35418;SDS011;21525;41.240;16.500;2022-11-20T00:08:13;5.82;;;3.08;;
35418;SDS011;21525;41.240;16.500;2022-11-20T00:10:42;7.63;;;2.85;;
35418;SDS011;21525;41.240;16.500;2022-11-20T00:13:08;6.78;;;2.55;;
35418;SDS011;21525;41.240;16.500;2022-11-20T00:15:34;7.20;;;2.80;;
35418;SDS011;21525;41.240;16.500;2022-11-20T00:17:59;7.07;;;2.65;;
35418;SDS011;21525;41.240;16.500;2022-11-20T00:20:25;7.38;;;3.03;;
35418;SDS011;21525;41.240;16.500;2022-11-20T00:22:51;6.35;;;2.78;;
35418;SDS011;21525;41.240;16.500;2022-11-20T00:25:18;8.40;;;2.47;;
35418;SDS011;21525;41.240;16.500;2022-11-20T00:27:43;8.07;;;2.72;;
35418;SDS011;21525;41.240;16.500;2022-11-20T00:30:09;9.30;;;3.58;;
35418;SDS011;21525;41.240;16.500;2022-11-20T00:32:35;9.57;;;3.28;;
35418;SDS011;21525;41.240;16.500;2022-11-20T00:35:01;13.40;;;3.15;;
35418;SDS011;21525;41.240;16.500;2022-11-20T00:37:26;10.60;;;2.83;;
35418;SDS011;21525;41.240;16.500;2022-11-20T00:39:52;12.57;;;3.30;;
35418;SDS011;21525;41.240;16.500;2022-11-20T00:42:18;9.18;;;3.08;;
35418;SDS011;21525;41.240;16.500;2022-11-20T00:44:44;10.20;;;3.58;;
35418;SDS011;21525;41.240;16.500;2022-11-20T00:47:09;8.25;;;3.22;;
35418;SDS011;21525;41.240;16.500;2022-11-20T00:49:35;13.05;;;3.03;;
35418;SDS011;21525;41.240;16.500;2022-11-20T00:52:01;11.95;;;3.50;;
35418;SDS011;21525;41.240;16.500;2022-11-20T00:54:27;12.07;;;3.78;;
35418;SDS011;21525;41.240;16.500;2022-11-20T00:56:53;13.23;;;3.22;;
35418;SDS011;21525;41.240;16.500;2022-11-20T00:59:19;7.50;;;3.08;;
35418;SDS011;21525;41.240;16.500;2022-11-20T01:01:44;13.27;;;5.78;;
35418;SDS011;21525;41.240;16.500;2022-11-20T01:04:10;12.52;;;5.32;;
35418;SDS011;21525;41.240;16.500;2022-11-20T01:06:37;12.02;;;3.75;;
35418;SDS011;21525;41.240;16.500;2022-11-20T01:09:05;9.75;;;3.35;;
35418;SDS011;21525;41.240;16.500;2022-11-20T01:11:38;11.75;;;4.57;;
35418;SDS011;21525;41.240;16.500;2022-11-20T01:14:07;11.95;;;5.43;;
35418;SDS011;21525;41.240;16.500;2022-11-20T01:16:36;11.82;;;3.42;;
35418;SDS011;21525;41.240;16.500;2022-11-20T01:19:05;10.30;;;2.47;;
35418;SDS011;21525;41.240;16.500;2022-11-20T01:21:33;7.43;;;2.60;;
35418;SDS011;21525;41.240;16.500;2022-11-20T01:24:01;7.60;;;2.25;;
35418;SDS011;21525;41.240;16.500;2022-11-20T01:26:30;10.45;;;4.40;;
35418;SDS011;21525;41.240;16.500;2022-11-20T01:28:58;7.53;;;2.35;;
35418;SDS011;21525;41.240;16.500;2022-11-20T01:33:58;8.20;;;2.25;;
35418;SDS011;21525;41.240;16.500;2022-11-20T01:36:26;10.05;;;2.03;;
35418;SDS011;21525;41.240;16.500;2022-11-20T01:38:54;7.57;;;2.20;;
35418;SDS011;21525;41.240;16.500;2022-11-20T01:41:22;8.52;;;2.03;;
35418;SDS011;21525;41.240;16.500;2022-11-20T01:44:09;7.05;;;1.85;;
35418;SDS011;21525;41.240;16.500;2022-11-20T01:46:38;6.82;;;1.70;;
35418;SDS011;21525;41.240;16.500;2022-11-20T01:49:16;11.07;;;2.88;;
35418;SDS011;21525;41.240;16.500;2022-11-20T01:51:51;8.88;;;2.65;;
35418;SDS011;21525;41.240;16.500;2022-11-20T01:54:42;9.75;;;3.60;;
35418;SDS011;21525;41.240;16.500;2022-11-20T01:57:15;11.25;;;5.05;;
35418;SDS011;21525;41.240;16.500;2022-11-20T01:59:48;7.05;;;1.70;;
35418;SDS011;21525;41.240;16.500;2022-11-20T02:02:20;7.95;;;2.03;;
35418;SDS011;21525;41.240;16.500;2022-11-20T02:04:46;5.30;;;1.85;;
35418;SDS011;21525;41.240;16.500;2022-11-20T02:07:14;8.60;;;2.33;;
35418;SDS011;21525;41.240;16.500;2022-11-20T02:09:41;9.48;;;2.17;;
35418;SDS011;21525;41.240;16.500;2022-11-20T02:12:07;11.05;;;2.20;;
35418;SDS011;21525;41.240;16.500;2022-11-20T02:14:52;5.20;;;1.92;;
35418;SDS011;21525;41.240;16.500;2022-11-20T02:17:18;9.30;;;2.90;;
35418;SDS011;21525;41.240;16.500;2022-11-20T02:19:44;8.50;;;3.22;;
35418;SDS011;21525;41.240;16.500;2022-11-20T02:22:14;9.70;;;2.53;;
35418;SDS011;21525;41.240;16.500;2022-11-20T02:24:48;8.13;;;2.97;;
35418;SDS011;21525;41.240;16.500;2022-11-20T02:27:15;7.72;;;2.45;;
35418;SDS011;21525;41.240;16.500;2022-11-20T02:29:57;9.02;;;3.35;;
35418;SDS011;21525;41.240;16.500;2022-11-20T02:32:29;9.30;;;2.85;;
35418;SDS011;21525;41.240;16.500;2022-11-20T02:37:23;8.05;;;2.22;;
35418;SDS011;21525;41.240;16.500;2022-11-20T02:39:55;8.88;;;2.85;;
35418;SDS011;21525;41.240;16.500;2022-11-20T02:42:21;14.15;;;2.42;;
35418;SDS011;21525;41.240;16.500;2022-11-20T02:44:47;11.65;;;3.40;;
35418;SDS011;21525;41.240;16.500;2022-11-20T02:47:13;11.00;;;3.40;;
35418;SDS011;21525;41.240;16.500;2022-11-20T02:49:38;9.82;;;2.92;;
35418;SDS011;21525;41.240;16.500;2022-11-20T02:52:04;9.82;;;2.63;;
35418;SDS011;21525;41.240;16.500;2022-11-20T02:54:30;12.63;;;3.05;;
35418;SDS011;21525;41.240;16.500;2022-11-20T02:56:56;9.65;;;2.50;;
35418;SDS011;21525;41.240;16.500;2022-11-20T02:59:21;8.18;;;2.30;;
35418;SDS011;21525;41.240;16.500;2022-11-20T03:01:47;8.98;;;3.00;;
35418;SDS011;21525;41.240;16.500;2022-11-20T03:04:13;9.50;;;3.10;;
35418;SDS011;21525;41.240;16.500;2022-11-20T03:06:39;7.00;;;2.67;;
35418;SDS011;21525;41.240;16.500;2022-11-20T03:09:04;7.90;;;1.92;;
35418;SDS011;21525;41.240;16.500;2022-11-20T03:11:30;8.65;;;2.10;;
35418;SDS011;21525;41.240;16.500;2022-11-20T03:13:56;7.80;;;2.00;;
35418;SDS011;21525;41.240;16.500;2022-11-20T03:16:22;8.93;;;2.45;;
35418;SDS011;21525;41.240;16.500;2022-11-20T03:18:48;7.50;;;2.17;;
35418;SDS011;21525;41.240;16.500;2022-11-20T03:21:14;9.75;;;2.55;;
35418;SDS011;21525;41.240;16.500;2022-11-20T03:23:41;7.63;;;2.25;;
35418;SDS011;21525;41.240;16.500;2022-11-20T03:26:12;9.68;;;2.33;;
35418;SDS011;21525;41.240;16.500;2022-11-20T03:28:39;8.68;;;2.13;;
35418;SDS011;21525;41.240;16.500;2022-11-20T03:31:07;6.68;;;1.65;;
35418;SDS011;21525;41.240;16.500;2022-11-20T03:33:34;9.45;;;2.30;;
35418;SDS011;21525;41.240;16.500;2022-11-20T03:36:03;10.40;;;1.75;;
35418;SDS011;21525;41.240;16.500;2022-11-20T03:38:30;9.32;;;2.72;;
35418;SDS011;21525;41.240;16.500;2022-11-20T03:41:00;5.15;;;2.15;;
35418;SDS011;21525;41.240;16.500;2022-11-20T03:43:30;9.70;;;2.33;;
35418;SDS011;21525;41.240;16.500;2022-11-20T03:45:56;12.25;;;2.38;;
35418;SDS011;21525;41.240;16.500;2022-11-20T03:48:22;9.98;;;2.85;;
35418;SDS011;21525;41.240;16.500;2022-11-20T03:50:48;8.35;;;2.33;;
35418;SDS011;21525;41.240;16.500;2022-11-20T03:53:15;8.15;;;2.15;;
35418;SDS011;21525;41.240;16.500;2022-11-20T03:55:42;7.63;;;2.13;;
35418;SDS011;21525;41.240;16.500;2022-11-20T03:58:08;7.75;;;1.95;;
35418;SDS011;21525;41.240;16.500;2022-11-20T04:00:34;7.03;;;2.65;;
35418;SDS011;21525;41.240;16.500;2022-11-20T04:03:00;7.57;;;2.50;;
35418;SDS011;21525;41.240;16.500;2022-11-20T04:05:26;9.82;;;3.10;;
35418;SDS011;21525;41.240;16.500;2022-11-20T04:07:53;11.82;;;2.55;;
35418;SDS011;21525;41.240;16.500;2022-11-20T04:10:19;9.68;;;2.60;;
35418;SDS011;21525;41.240;16.500;2022-11-20T04:12:45;8.20;;;2.47;;
35418;SDS011;21525;41.240;16.500;2022-11-20T04:15:11;6.93;;;1.90;;
35418;SDS011;21525;41.240;16.500;2022-11-20T04:17:37;8.27;;;2.25;;
35418;SDS011;21525;41.240;16.500;2022-11-20T04:20:02;7.85;;;1.88;;
35418;SDS011;21525;41.240;16.500;2022-11-20T04:22:29;7.07;;;1.58;;
35418;SDS011;21525;41.240;16.500;2022-11-20T04:24:54;5.40;;;1.27;;
35418;SDS011;21525;41.240;16.500;2022-11-20T04:27:20;8.20;;;2.53;;
35418;SDS011;21525;41.240;16.500;2022-11-20T04:29:46;4.20;;;1.50;;
35418;SDS011;21525;41.240;16.500;2022-11-20T04:32:11;9.65;;;2.05;;
35418;SDS011;21525;41.240;16.500;2022-11-20T04:34:37;7.75;;;2.30;;
35418;SDS011;21525;41.240;16.500;2022-11-20T04:37:03;5.65;;;2.00;;
35418;SDS011;21525;41.240;16.500;2022-11-20T04:39:29;5.45;;;1.60;;
35418;SDS011;21525;41.240;16.500;2022-11-20T04:41:54;6.85;;;1.55;;
35418;SDS011;21525;41.240;16.500;2022-11-20T04:44:39;4.45;;;1.25;;
35418;SDS011;21525;41.240;16.500;2022-11-20T04:47:04;5.03;;;1.08;;
35418;SDS011;21525;41.240;16.500;2022-11-20T04:49:30;4.45;;;1.35;;
35418;SDS011;21525;41.240;16.500;2022-11-20T04:51:57;5.13;;;1.13;;
35418;SDS011;21525;41.240;16.500;2022-11-20T04:54:23;6.13;;;1.60;;
35418;SDS011;21525;41.240;16.500;2022-11-20T04:56:49;4.43;;;1.55;;
35418;SDS011;21525;41.240;16.500;2022-11-20T04:59:16;6.63;;;2.92;;
35418;SDS011;21525;41.240;16.500;2022-11-20T05:01:41;9.65;;;2.92;;
35418;SDS011;21525;41.240;16.500;2022-11-20T05:04:07;9.88;;;3.30;;
35418;SDS011;21525;41.240;16.500;2022-11-20T05:06:33;6.10;;;2.92;;
35418;SDS011;21525;41.240;16.500;2022-11-20T05:08:59;6.82;;;2.72;;
35418;SDS011;21525;41.240;16.500;2022-11-20T05:11:26;9.23;;;3.13;;
35418;SDS011;21525;41.240;16.500;2022-11-20T05:13:54;7.32;;;2.97;;
35418;SDS011;21525;41.240;16.500;2022-11-20T05:16:23;7.53;;;2.40;;
35418;SDS011;21525;41.240;16.500;2022-11-20T05:18:51;6.15;;;2.20;;
35418;SDS011;21525;41.240;16.500;2022-11-20T05:21:18;6.25;;;2.33;;
35418;SDS011;21525;41.240;16.500;2022-11-20T05:23:44;9.95;;;3.88;;
35418;SDS011;21525;41.240;16.500;2022-11-20T05:26:15;5.85;;;1.98;;
35418;SDS011;21525;41.240;16.500;2022-11-20T05:28:42;7.45;;;2.33;;
35418;SDS011;21525;41.240;16.500;2022-11-20T05:31:09;7.10;;;2.00;;
35418;SDS011;21525;41.240;16.500;2022-11-20T05:33:39;8.35;;;2.42;;
35418;SDS011;21525;41.240;16.500;2022-11-20T05:36:05;9.75;;;3.03;;
35418;SDS011;21525;41.240;16.500;2022-11-20T05:38:32;11.73;;;2.90;;
35418;SDS011;21525;41.240;16.500;2022-11-20T05:43:31;9.52;;;3.65;;
35418;SDS011;21525;41.240;16.500;2022-11-20T05:45:59;11.07;;;3.72;;
35418;SDS011;21525;41.240;16.500;2022-11-20T05:48:24;9.68;;;3.60;;
35418;SDS011;21525;41.240;16.500;2022-11-20T05:50:50;11.25;;;3.80;;
35418;SDS011;21525;41.240;16.500;2022-11-20T05:53:16;9.30;;;3.97;;
35418;SDS011;21525;41.240;16.500;2022-11-20T05:55:42;8.70;;;3.83;;
35418;SDS011;21525;41.240;16.500;2022-11-20T05:58:08;9.88;;;3.83;;
35418;SDS011;21525;41.240;16.500;2022-11-20T06:00:34;18.05;;;4.70;;
35418;SDS011;21525;41.240;16.500;2022-11-20T06:02:59;10.02;;;5.85;;
35418;SDS011;21525;41.240;16.500;2022-11-20T06:05:25;10.15;;;5.40;;
35418;SDS011;21525;41.240;16.500;2022-11-20T06:07:51;10.80;;;5.65;;
35418;SDS011;21525;41.240;16.500;2022-11-20T06:10:16;11.85;;;6.07;;
35418;SDS011;21525;41.240;16.500;2022-11-20T06:12:42;14.30;;;5.45;;
35418;SDS011;21525;41.240;16.500;2022-11-20T06:15:08;23.67;;;7.18;;
35418;SDS011;21525;41.240;16.500;2022-11-20T06:17:34;12.38;;;6.68;;
35418;SDS011;21525;41.240;16.500;2022-11-20T06:20:00;18.80;;;6.88;;
35418;SDS011;21525;41.240;16.500;2022-11-20T06:22:26;11.07;;;5.93;;
35418;SDS011;21525;41.240;16.500;2022-11-20T06:24:52;12.93;;;6.45;;
35418;SDS011;21525;41.240;16.500;2022-11-20T06:27:18;14.15;;;6.97;;
35418;SDS011;21525;41.240;16.500;2022-11-20T06:29:44;15.23;;;7.40;;
35418;SDS011;21525;41.240;16.500;2022-11-20T06:32:10;16.88;;;8.00;;
35418;SDS011;21525;41.240;16.500;2022-11-20T06:34:36;18.70;;;7.57;;
35418;SDS011;21525;41.240;16.500;2022-11-20T06:37:02;14.23;;;7.05;;
35418;SDS011;21525;41.240;16.500;2022-11-20T06:39:27;15.23;;;6.75;;
35418;SDS011;21525;41.240;16.500;2022-11-20T06:41:53;10.60;;;6.30;;
35418;SDS011;21525;41.240;16.500;2022-11-20T06:44:19;12.50;;;5.93;;
35418;SDS011;21525;41.240;16.500;2022-11-20T06:46:45;14.52;;;6.32;;
35418;SDS011;21525;41.240;16.500;2022-11-20T06:49:10;8.68;;;5.05;;
35418;SDS011;21525;41.240;16.500;2022-11-20T06:51:36;8.95;;;5.00;;
35418;SDS011;21525;41.240;16.500;2022-11-20T06:54:02;9.50;;;5.15;;
35418;SDS011;21525;41.240;16.500;2022-11-20T06:56:28;12.52;;;5.85;;
35418;SDS011;21525;41.240;16.500;2022-11-20T06:58:54;10.23;;;4.55;;
35418;SDS011;21525;41.240;16.500;2022-11-20T07:01:19;14.93;;;5.68;;
35418;SDS011;21525;41.240;16.500;2022-11-20T07:03:48;9.43;;;5.20;;
35418;SDS011;21525;41.240;16.500;2022-11-20T07:06:15;10.90;;;5.53;;
35418;SDS011;21525;41.240;16.500;2022-11-20T07:08:41;9.95;;;4.93;;
35418;SDS011;21525;41.240;16.500;2022-11-20T07:11:07;10.20;;;5.32;;
35418;SDS011;21525;41.240;16.500;2022-11-20T07:13:33;10.90;;;5.72;;
35418;SDS011;21525;41.240;16.500;2022-11-20T07:16:00;10.65;;;5.20;;
35418;SDS011;21525;41.240;16.500;2022-11-20T07:18:26;15.38;;;6.60;;
35418;SDS011;21525;41.240;16.500;2022-11-20T07:20:52;11.55;;;5.40;;
35418;SDS011;21525;41.240;16.500;2022-11-20T07:23:18;10.13;;;4.82;;
35418;SDS011;21525;41.240;16.500;2022-11-20T07:25:44;9.27;;;5.15;;
35418;SDS011;21525;41.240;16.500;2022-11-20T07:28:09;11.32;;;4.53;;
35418;SDS011;21525;41.240;16.500;2022-11-20T07:30:35;8.18;;;4.88;;
35418;SDS011;21525;41.240;16.500;2022-11-20T07:33:01;8.60;;;4.95;;
35418;SDS011;21525;41.240;16.500;2022-11-20T07:35:27;9.15;;;4.35;;
35418;SDS011;21525;41.240;16.500;2022-11-20T07:37:53;9.70;;;4.68;;
35418;SDS011;21525;41.240;16.500;2022-11-20T07:40:19;10.55;;;4.82;;
35418;SDS011;21525;41.240;16.500;2022-11-20T07:42:49;11.73;;;4.68;;
35418;SDS011;21525;41.240;16.500;2022-11-20T07:45:16;10.00;;;5.10;;
35418;SDS011;21525;41.240;16.500;2022-11-20T07:47:42;7.65;;;3.78;;
35418;SDS011;21525;41.240;16.500;2022-11-20T07:50:09;9.00;;;4.20;;
35418;SDS011;21525;41.240;16.500;2022-11-20T07:52:35;7.22;;;4.28;;
35418;SDS011;21525;41.240;16.500;2022-11-20T07:55:01;9.88;;;4.55;;
35418;SDS011;21525;41.240;16.500;2022-11-20T07:57:27;9.30;;;5.00;;
35418;SDS011;21525;41.240;16.500;2022-11-20T07:59:52;10.35;;;4.78;;
35418;SDS011;21525;41.240;16.500;2022-11-20T08:02:18;9.35;;;5.07;;
35418;SDS011;21525;41.240;16.500;2022-11-20T08:04:44;9.65;;;4.57;;
35418;SDS011;21525;41.240;16.500;2022-11-20T08:07:09;8.82;;;4.88;;
35418;SDS011;21525;41.240;16.500;2022-11-20T08:09:35;6.53;;;3.67;;
35418;SDS011;21525;41.240;16.500;2022-11-20T08:12:01;9.93;;;4.95;;
35418;SDS011;21525;41.240;16.500;2022-11-20T08:14:45;9.57;;;5.75;;
35418;SDS011;21525;41.240;16.500;2022-11-20T08:17:11;11.13;;;5.10;;
35418;SDS011;21525;41.240;16.500;2022-11-20T08:19:37;10.60;;;4.10;;
35418;SDS011;21525;41.240;16.500;2022-11-20T08:22:03;7.97;;;3.97;;
35418;SDS011;21525;41.240;16.500;2022-11-20T08:24:29;12.15;;;5.00;;
35418;SDS011;21525;41.240;16.500;2022-11-20T08:26:57;13.70;;;4.78;;
35418;SDS011;21525;41.240;16.500;2022-11-20T08:31:50;10.07;;;5.35;;
35418;SDS011;21525;41.240;16.500;2022-11-20T08:34:15;8.23;;;4.85;;
35418;SDS011;21525;41.240;16.500;2022-11-20T08:36:41;13.70;;;5.78;;
35418;SDS011;21525;41.240;16.500;2022-11-20T08:39:07;13.30;;;6.10;;
35418;SDS011;21525;41.240;16.500;2022-11-20T08:41:32;15.90;;;5.78;;
35418;SDS011;21525;41.240;16.500;2022-11-20T08:43:59;14.75;;;9.00;;
35418;SDS011;21525;41.240;16.500;2022-11-20T08:46:36;16.30;;;8.00;;
35418;SDS011;21525;41.240;16.500;2022-11-20T08:49:04;13.73;;;5.40;;
35418;SDS011;21525;41.240;16.500;2022-11-20T08:51:31;11.45;;;4.80;;
35418;SDS011;21525;41.240;16.500;2022-11-20T08:53:58;12.10;;;5.55;;
35418;SDS011;21525;41.240;16.500;2022-11-20T08:56:23;9.70;;;5.72;;
35418;SDS011;21525;41.240;16.500;2022-11-20T08:58:50;18.88;;;9.02;;
35418;SDS011;21525;41.240;16.500;2022-11-20T09:01:19;120.95;;;28.92;;
35418;SDS011;21525;41.240;16.500;2022-11-20T09:03:46;44.40;;;13.05;;
35418;SDS011;21525;41.240;16.500;2022-11-20T09:06:12;66.88;;;15.48;;
35418;SDS011;21525;41.240;16.500;2022-11-20T09:08:38;34.08;;;16.45;;
35418;SDS011;21525;41.240;16.500;2022-11-20T09:11:04;32.33;;;14.60;;
35418;SDS011;21525;41.240;16.500;2022-11-20T09:13:31;17.88;;;10.00;;
35418;SDS011;21525;41.240;16.500;2022-11-20T09:15:59;16.65;;;9.18;;
35418;SDS011;21525;41.240;16.500;2022-11-20T09:18:27;24.58;;;7.85;;
35418;SDS011;21525;41.240;16.500;2022-11-20T09:21:00;12.23;;;6.53;;
35418;SDS011;21525;41.240;16.500;2022-11-20T09:23:30;10.95;;;5.20;;
35418;SDS011;21525;41.240;16.500;2022-11-20T09:25:57;539.15;;;414.65;;
35418;SDS011;21525;41.240;16.500;2022-11-20T09:28:25;1999.90;;;999.90;;
35418;SDS011;21525;41.240;16.500;2022-11-20T09:30:51;1999.90;;;999.90;;
35418;SDS011;21525;41.240;16.500;2022-11-20T09:33:18;1999.90;;;999.90;;
35418;SDS011;21525;41.240;16.500;2022-11-20T09:35:44;1564.22;;;947.92;;
35418;SDS011;21525;41.240;16.500;2022-11-20T09:38:10;112.68;;;100.95;;
35418;SDS011;21525;41.240;16.500;2022-11-20T09:40:38;32.15;;;23.23;;
35418;SDS011;21525;41.240;16.500;2022-11-20T09:43:19;11.10;;;5.75;;
35418;SDS011;21525;41.240;16.500;2022-11-20T09:45:54;10.45;;;5.00;;
35418;SDS011;21525;41.240;16.500;2022-11-20T09:54:05;14.90;;;6.55;;
35418;SDS011;21525;41.240;16.500;2022-11-20T09:56:40;12.85;;;7.47;;
35418;SDS011;21525;41.240;16.500;2022-11-20T09:59:14;13.02;;;6.95;;
35418;SDS011;21525;41.240;16.500;2022-11-20T10:01:53;14.57;;;5.47;;
35418;SDS011;21525;41.240;16.500;2022-11-20T10:04:20;12.55;;;5.85;;
35418;SDS011;21525;41.240;16.500;2022-11-20T10:06:56;10.65;;;5.25;;
35418;SDS011;21525;41.240;16.500;2022-11-20T10:09:34;11.48;;;5.43;;
35418;SDS011;21525;41.240;16.500;2022-11-20T10:12:18;9.82;;;5.03;;
35418;SDS011;21525;41.240;16.500;2022-11-20T10:20:25;9.48;;;3.42;;
35418;SDS011;21525;41.240;16.500;2022-11-20T10:25:51;9.43;;;3.45;;
35418;SDS011;21525;41.240;16.500;2022-11-20T10:28:29;15.60;;;4.70;;
35418;SDS011;21525;41.240;16.500;2022-11-20T10:31:04;8.02;;;3.70;;
35418;SDS011;21525;41.240;16.500;2022-11-20T10:33:36;12.80;;;3.80;;
35418;SDS011;21525;41.240;16.500;2022-11-20T10:41:24;13.63;;;4.07;;
35418;SDS011;21525;41.240;16.500;2022-11-20T10:44:30;13.73;;;4.68;;
35418;SDS011;21525;41.240;16.500;2022-11-20T10:47:16;12.10;;;4.18;;
35418;SDS011;21525;41.240;16.500;2022-11-20T10:49:45;9.13;;;3.42;;
35418;SDS011;21525;41.240;16.500;2022-11-20T11:00:30;8.75;;;3.20;;
35418;SDS011;21525;41.240;16.500;2022-11-20T11:02:56;10.77;;;2.90;;
35418;SDS011;21525;41.240;16.500;2022-11-20T11:08:43;15.10;;;5.72;;
35418;SDS011;21525;41.240;16.500;2022-11-20T11:11:32;17.40;;;7.18;;
35418;SDS011;21525;41.240;16.500;2022-11-20T11:14:08;13.13;;;4.65;;
35418;SDS011;21525;41.240;16.500;2022-11-20T11:16:54;10.85;;;4.78;;
35418;SDS011;21525;41.240;16.500;2022-11-20T11:19:22;14.90;;;5.22;;
35418;SDS011;21525;41.240;16.500;2022-11-20T11:21:52;16.83;;;7.43;;
35418;SDS011;21525;41.240;16.500;2022-11-20T11:24:21;11.02;;;6.65;;
35418;SDS011;21525;41.240;16.500;2022-11-20T11:27:03;14.65;;;8.45;;
35418;SDS011;21525;41.240;16.500;2022-11-20T11:29:37;27.42;;;19.48;;
35418;SDS011;21525;41.240;16.500;2022-11-20T11:32:21;153.50;;;139.68;;
35418;SDS011;21525;41.240;16.500;2022-11-20T11:35:01;277.08;;;249.18;;
35418;SDS011;21525;41.240;16.500;2022-11-20T11:37:32;978.95;;;754.55;;
35418;SDS011;21525;41.240;16.500;2022-11-20T11:40:01;311.25;;;283.45;;
35418;SDS011;21525;41.240;16.500;2022-11-20T11:42:29;27.48;;;19.48;;
35418;SDS011;21525;41.240;16.500;2022-11-20T11:44:56;12.93;;;5.50;;
35418;SDS011;21525;41.240;16.500;2022-11-20T11:50:13;14.73;;;7.38;;
35418;SDS011;21525;41.240;16.500;2022-11-20T12:00:37;15.40;;;8.85;;
35418;SDS011;21525;41.240;16.500;2022-11-20T12:05:43;17.48;;;9.20;;
35418;SDS011;21525;41.240;16.500;2022-11-20T12:08:18;15.85;;;9.95;;
35418;SDS011;21525;41.240;16.500;2022-11-20T12:11:06;22.10;;;17.50;;
35418;SDS011;21525;41.240;16.500;2022-11-20T12:13:39;14.38;;;8.00;;
35418;SDS011;21525;41.240;16.500;2022-11-20T12:16:11;14.35;;;7.50;;
35418;SDS011;21525;41.240;16.500;2022-11-20T12:37:54;165.70;;;151.98;;
35418;SDS011;21525;41.240;16.500;2022-11-20T12:40:46;10.10;;;7.68;;
35418;SDS011;21525;41.240;16.500;2022-11-20T12:43:37;22.13;;;20.08;;
35418;SDS011;21525;41.240;16.500;2022-11-20T12:47:15;8.20;;;3.70;;
35418;SDS011;21525;41.240;16.500;2022-11-20T12:57:55;11.30;;;4.72;;
35418;SDS011;21525;41.240;16.500;2022-11-20T13:00:29;13.40;;;5.10;;
35418;SDS011;21525;41.240;16.500;2022-11-20T13:05:52;44.42;;;37.00;;
35418;SDS011;21525;41.240;16.500;2022-11-20T13:19:31;7.53;;;2.63;;
35418;SDS011;21525;41.240;16.500;2022-11-20T13:21:57;6.43;;;2.83;;
35418;SDS011;21525;41.240;16.500;2022-11-20T13:24:25;11.88;;;4.50;;
35418;SDS011;21525;41.240;16.500;2022-11-20T13:29:34;6.88;;;2.90;;
35418;SDS011;21525;41.240;16.500;2022-11-20T13:34:30;10.32;;;2.85;;
35418;SDS011;21525;41.240;16.500;2022-11-20T13:36:56;6.40;;;2.78;;
35418;SDS011;21525;41.240;16.500;2022-11-20T13:42:03;6.88;;;2.40;;
35418;SDS011;21525;41.240;16.500;2022-11-20T13:44:55;9.77;;;2.80;;
35418;SDS011;21525;41.240;16.500;2022-11-20T13:47:28;10.57;;;2.47;;
35418;SDS011;21525;41.240;16.500;2022-11-20T13:49:57;6.78;;;2.70;;
35418;SDS011;21525;41.240;16.500;2022-11-20T13:55:42;8.07;;;2.72;;
35418;SDS011;21525;41.240;16.500;2022-11-20T14:01:19;5.88;;;2.00;;
35418;SDS011;21525;41.240;16.500;2022-11-20T14:03:47;5.35;;;2.30;;
35418;SDS011;21525;41.240;16.500;2022-11-20T14:08:48;10.70;;;3.30;;
35418;SDS011;21525;41.240;16.500;2022-11-20T14:11:24;11.20;;;2.80;;
35418;SDS011;21525;41.240;16.500;2022-11-20T14:16:22;6.63;;;2.60;;
35418;SDS011;21525;41.240;16.500;2022-11-20T14:18:49;15.90;;;3.28;;
35418;SDS011;21525;41.240;16.500;2022-11-20T14:21:22;13.27;;;2.80;;
35418;SDS011;21525;41.240;16.500;2022-11-20T14:23:53;7.00;;;2.47;;
35418;SDS011;21525;41.240;16.500;2022-11-20T14:26:19;6.18;;;2.90;;
35418;SDS011;21525;41.240;16.500;2022-11-20T14:28:47;7.90;;;2.95;;
35418;SDS011;21525;41.240;16.500;2022-11-20T14:31:21;5.57;;;2.30;;
35418;SDS011;21525;41.240;16.500;2022-11-20T14:33:54;9.13;;;3.10;;
35418;SDS011;21525;41.240;16.500;2022-11-20T14:36:21;8.05;;;3.50;;
35418;SDS011;21525;41.240;16.500;2022-11-20T14:38:49;7.53;;;3.05;;
35418;SDS011;21525;41.240;16.500;2022-11-20T14:41:17;12.30;;;4.45;;
35418;SDS011;21525;41.240;16.500;2022-11-20T14:43:53;12.82;;;5.80;;
35418;SDS011;21525;41.240;16.500;2022-11-20T14:46:22;10.93;;;3.55;;
35418;SDS011;21525;41.240;16.500;2022-11-20T14:48:53;7.95;;;3.60;;
35418;SDS011;21525;41.240;16.500;2022-11-20T14:53:49;7.93;;;2.92;;
35418;SDS011;21525;41.240;16.500;2022-11-20T14:56:21;9.27;;;2.60;;
35418;SDS011;21525;41.240;16.500;2022-11-20T14:58:55;12.00;;;3.15;;
35418;SDS011;21525;41.240;16.500;2022-11-20T15:01:26;13.35;;;4.45;;
35418;SDS011;21525;41.240;16.500;2022-11-20T15:04:14;12.43;;;3.55;;
35418;SDS011;21525;41.240;16.500;2022-11-20T15:06:48;10.93;;;3.05;;
35418;SDS011;21525;41.240;16.500;2022-11-20T15:09:16;6.40;;;3.13;;
35418;SDS011;21525;41.240;16.500;2022-11-20T15:11:50;8.82;;;3.30;;
35418;SDS011;21525;41.240;16.500;2022-11-20T15:14:19;10.70;;;3.80;;
35418;SDS011;21525;41.240;16.500;2022-11-20T15:16:45;8.02;;;3.80;;
35418;SDS011;21525;41.240;16.500;2022-11-20T15:19:20;8.27;;;4.05;;
35418;SDS011;21525;41.240;16.500;2022-11-20T15:21:48;8.27;;;4.55;;
35418;SDS011;21525;41.240;16.500;2022-11-20T15:24:14;11.40;;;5.85;;
35418;SDS011;21525;41.240;16.500;2022-11-20T15:26:40;10.43;;;5.03;;
35418;SDS011;21525;41.240;16.500;2022-11-20T15:29:08;8.48;;;5.18;;
35418;SDS011;21525;41.240;16.500;2022-11-20T15:31:38;9.02;;;4.35;;
35418;SDS011;21525;41.240;16.500;2022-11-20T15:34:10;8.52;;;3.70;;
35418;SDS011;21525;41.240;16.500;2022-11-20T15:36:38;8.40;;;4.05;;
35418;SDS011;21525;41.240;16.500;2022-11-20T15:39:05;11.07;;;4.57;;
35418;SDS011;21525;41.240;16.500;2022-11-20T15:41:33;9.85;;;4.10;;
35418;SDS011;21525;41.240;16.500;2022-11-20T15:44:02;5.90;;;3.72;;
35418;SDS011;21525;41.240;16.500;2022-11-20T15:46:29;8.32;;;4.60;;
35418;SDS011;21525;41.240;16.500;2022-11-20T15:49:02;9.68;;;4.70;;
35418;SDS011;21525;41.240;16.500;2022-11-20T15:53:57;8.10;;;4.18;;
35418;SDS011;21525;41.240;16.500;2022-11-20T15:56:25;7.05;;;3.38;;
35418;SDS011;21525;41.240;16.500;2022-11-20T15:58:51;6.85;;;3.50;;
35418;SDS011;21525;41.240;16.500;2022-11-20T16:01:19;7.50;;;3.50;;
35418;SDS011;21525;41.240;16.500;2022-11-20T16:03:46;11.43;;;5.40;;
35418;SDS011;21525;41.240;16.500;2022-11-20T16:06:12;10.02;;;5.13;;
35418;SDS011;21525;41.240;16.500;2022-11-20T16:08:38;9.98;;;5.10;;
35418;SDS011;21525;41.240;16.500;2022-11-20T16:11:04;13.20;;;7.45;;
35418;SDS011;21525;41.240;16.500;2022-11-20T16:13:30;12.05;;;6.07;;
35418;SDS011;21525;41.240;16.500;2022-11-20T16:16:19;19.00;;;5.63;;
35418;SDS011;21525;41.240;16.500;2022-11-20T16:18:48;15.00;;;4.43;;
35418;SDS011;21525;41.240;16.500;2022-11-20T16:21:14;20.55;;;3.63;;
35418;SDS011;21525;41.240;16.500;2022-11-20T16:23:40;12.10;;;2.63;;
35418;SDS011;21525;41.240;16.500;2022-11-20T16:26:15;15.60;;;3.08;;
35418;SDS011;21525;41.240;16.500;2022-11-20T16:28:46;15.82;;;3.58;;
35418;SDS011;21525;41.240;16.500;2022-11-20T16:31:12;16.95;;;3.78;;
35418;SDS011;21525;41.240;16.500;2022-11-20T16:33:40;18.75;;;3.45;;
35418;SDS011;21525;41.240;16.500;2022-11-20T16:36:09;15.55;;;3.10;;